createdAt,value
2018-11-20T00:02:55.988Z,5.58
2018-11-20T00:06:03.241Z,6.75
2018-11-20T00:12:28.464Z,6.53
2018-11-20T00:15:35.685Z,7.10
2018-11-20T00:18:42.945Z,6.00
2018-11-20T00:21:44.270Z,5.62
2018-11-20T00:24:51.544Z,6.50
2018-11-20T00:27:58.770Z,5.65
2018-11-20T00:31:02.948Z,5.87
2018-11-20T00:34:10.152Z,6.20
2018-11-20T00:37:17.696Z,5.62
2018-11-20T00:40:12.381Z,8.15
2018-11-20T00:43:19.623Z,7.53
2018-11-20T00:46:26.857Z,8.13
2018-11-20T00:49:34.105Z,6.70
2018-11-20T00:52:42.074Z,6.20
2018-11-20T00:56:08.296Z,9.15
2018-11-20T00:59:15.529Z,8.23
2018-11-20T01:02:22.802Z,7.30
2018-11-20T01:05:30.039Z,8.50
2018-11-20T01:08:37.259Z,8.78
2018-11-20T01:11:44.485Z,7.10
2018-11-20T01:14:51.696Z,6.67
2018-11-20T01:17:59.645Z,6.85
2018-11-20T01:21:06.875Z,5.78
2018-11-20T01:27:22.775Z,9.18
2018-11-20T01:30:30.031Z,9.70
2018-11-20T01:33:37.243Z,10.53
2018-11-20T01:36:44.471Z,6.12
2018-11-20T01:39:51.946Z,6.97
2018-11-20T01:42:59.165Z,12.78
2018-11-20T01:46:06.696Z,11.85
2018-11-20T01:49:13.918Z,9.20
2018-11-20T01:52:21.146Z,9.93
2018-11-20T01:55:28.358Z,8.08
2018-11-20T01:58:25.830Z,9.68
2018-11-20T02:01:33.061Z,9.40
2018-11-20T02:04:34.039Z,10.78
2018-11-20T02:07:41.272Z,10.63
2018-11-20T02:10:48.556Z,10.48
2018-11-20T02:14:05.362Z,9.28
2018-11-20T02:17:16.843Z,8.33
2018-11-20T02:20:24.515Z,10.58
2018-11-20T02:23:31.741Z,12.25
2018-11-20T02:26:38.966Z,10.50
2018-11-20T02:29:46.210Z,8.68
2018-11-20T02:32:53.418Z,9.93
2018-11-20T02:36:00.653Z,9.28
2018-11-20T02:42:20.927Z,7.72
2018-11-20T02:45:23.276Z,12.70
2018-11-20T02:48:30.521Z,11.80
2018-11-20T02:51:37.767Z,14.60
2018-11-20T02:54:44.989Z,10.90
2018-11-20T02:57:52.228Z,11.25
2018-11-20T03:00:59.465Z,12.90
2018-11-20T03:03:57.385Z,13.30
2018-11-20T03:07:04.917Z,13.25
2018-11-20T03:10:31.155Z,12.37
2018-11-20T03:13:38.384Z,15.10
2018-11-20T03:16:45.675Z,13.88
2018-11-20T03:19:52.909Z,13.18
2018-11-20T03:22:49.036Z,12.25
2018-11-20T03:25:59.958Z,14.33
2018-11-20T03:29:26.176Z,12.55
2018-11-20T03:32:33.385Z,12.40
2018-11-20T03:35:40.618Z,10.95
2018-11-20T03:38:47.834Z,10.88
2018-11-20T03:41:46.560Z,13.30
2018-11-20T03:44:53.812Z,13.95
2018-11-20T03:48:01.118Z,17.30
2018-11-20T03:51:08.318Z,9.68
2018-11-20T03:54:15.566Z,12.40
2018-11-20T03:57:22.771Z,11.28
2018-11-20T04:00:30.245Z,8.18
2018-11-20T04:03:37.460Z,10.45
2018-11-20T04:06:37.124Z,15.68
2018-11-20T04:09:32.210Z,13.22
2018-11-20T04:12:39.466Z,8.88
2018-11-20T04:15:37.064Z,11.60
2018-11-20T04:18:44.312Z,11.65
2018-11-20T04:21:51.522Z,13.38
2018-11-20T04:28:06.939Z,8.70
2018-11-20T04:31:33.161Z,7.00
2018-11-20T04:34:40.723Z,13.85
2018-11-20T04:37:36.404Z,9.80
2018-11-20T04:40:43.631Z,18.67
2018-11-20T04:43:48.664Z,16.35
2018-11-20T04:46:55.879Z,13.48
2018-11-20T04:50:03.253Z,11.38
2018-11-20T04:53:10.367Z,10.45
2018-11-20T04:56:17.631Z,12.25
2018-11-20T04:59:25.124Z,9.90
2018-11-20T05:02:32.398Z,8.83
2018-11-20T05:05:40.067Z,11.48
2018-11-20T05:08:47.303Z,8.73
2018-11-20T05:11:54.895Z,11.55
2018-11-20T05:15:02.143Z,13.03
2018-11-20T05:18:09.376Z,14.38
2018-11-20T05:21:08.946Z,12.43
2018-11-20T05:24:16.168Z,13.25
2018-11-20T05:27:11.420Z,15.20
2018-11-20T05:30:18.238Z,11.28
2018-11-20T05:33:25.479Z,12.93
2018-11-20T05:36:32.791Z,14.28
2018-11-20T05:39:40.028Z,10.68
2018-11-20T05:42:47.251Z,13.80
2018-11-20T05:45:54.463Z,12.73
2018-11-20T05:49:01.711Z,8.50
2018-11-20T05:52:09.501Z,21.05
2018-11-20T05:55:06.123Z,13.48
2018-11-20T05:58:13.464Z,15.65
2018-11-20T06:01:20.625Z,16.77
2018-11-20T06:04:27.838Z,8.95
2018-11-20T06:07:35.097Z,15.35
2018-11-20T06:10:42.319Z,10.63
2018-11-20T06:13:49.573Z,15.32
2018-11-20T06:16:56.784Z,13.43
2018-11-20T06:20:04.278Z,14.18
2018-11-20T06:23:06.837Z,18.73
2018-11-20T06:26:06.948Z,14.15
2018-11-20T06:29:06.692Z,14.40
2018-11-20T06:32:07.167Z,14.70
2018-11-20T06:35:03.458Z,16.45
2018-11-20T06:38:03.556Z,16.10
2018-11-20T06:41:00.726Z,16.97
2018-11-20T06:43:59.794Z,15.40
2018-11-20T06:50:03.148Z,15.13
2018-11-20T06:52:59.798Z,14.65
2018-11-20T06:55:59.587Z,13.43
2018-11-20T06:58:59.287Z,19.48
2018-11-20T07:01:59.441Z,18.95
2018-11-20T07:05:01.881Z,16.73
2018-11-20T07:08:02.072Z,17.77
2018-11-20T07:10:56.575Z,17.10
2018-11-20T07:13:56.839Z,12.93
2018-11-20T07:16:56.688Z,15.20
2018-11-20T07:20:02.425Z,13.43
2018-11-20T07:23:02.237Z,13.78
2018-11-20T07:28:56.846Z,14.50
2018-11-20T07:31:59.512Z,12.65
2018-11-20T07:34:47.159Z,12.28
2018-11-20T07:40:50.683Z,16.52
2018-11-20T07:46:54.608Z,17.90
2018-11-20T07:52:58.088Z,15.85
2018-11-20T07:55:58.326Z,17.70
2018-11-20T08:05:11.839Z,15.08
2018-11-20T08:11:15.499Z,15.60
2018-11-20T08:14:05.309Z,16.70
2018-11-20T08:17:08.590Z,16.55
2018-11-20T08:19:57.063Z,18.00
2018-11-20T08:22:57.605Z,14.73
2018-11-20T08:25:57.681Z,18.25
2018-11-20T08:28:47.306Z,18.62
2018-11-20T08:31:50.085Z,10.72
2018-11-20T08:34:52.792Z,17.30
2018-11-20T08:40:56.419Z,13.55
2018-11-20T08:43:51.577Z,18.92
2018-11-20T08:46:52.337Z,14.98
2018-11-20T08:49:57.919Z,19.80
2018-11-20T08:52:47.444Z,17.57
2018-11-20T08:55:47.632Z,22.87
2018-11-20T08:58:47.710Z,22.52
2018-11-20T09:04:50.821Z,25.12
2018-11-20T09:10:57.177Z,21.45
2018-11-20T09:13:56.645Z,20.30
2018-11-20T09:19:59.728Z,19.40
2018-11-20T09:22:59.732Z,22.93
2018-11-20T09:25:59.835Z,19.10
2018-11-20T09:32:07.370Z,19.50
2018-11-20T09:38:00.781Z,23.52
2018-11-20T09:44:04.555Z,24.60
2018-11-20T09:47:04.584Z,27.22
2018-11-20T09:50:05.004Z,20.80
2018-11-20T09:53:05.208Z,16.30
2018-11-20T09:56:10.940Z,23.30
2018-11-20T09:59:11.153Z,21.42
2018-11-20T10:02:12.091Z,18.95
2018-11-20T10:05:12.427Z,26.55
2018-11-20T10:08:12.502Z,22.17
2018-11-20T10:14:23.533Z,22.50
2018-11-20T10:17:23.251Z,23.18
2018-11-20T10:20:29.454Z,19.82
2018-11-20T10:23:29.758Z,27.60
2018-11-20T10:26:30.046Z,19.02
2018-11-20T10:32:37.786Z,18.12
2018-11-20T10:35:38.394Z,21.12
2018-11-20T10:38:38.346Z,21.75
2018-11-20T10:41:37.522Z,21.30
2018-11-20T10:47:43.380Z,21.50
2018-11-20T10:50:43.348Z,21.77
2018-11-20T10:53:45.925Z,15.15
2018-11-20T10:56:46.587Z,24.20
2018-11-20T10:59:46.768Z,24.95
2018-11-20T11:02:46.519Z,26.25
2018-11-20T11:05:32.920Z,23.75
2018-11-20T11:08:32.875Z,14.75
2018-11-20T11:14:36.299Z,23.00
2018-11-20T11:17:36.330Z,25.27
2018-11-20T11:20:36.677Z,31.65
2018-11-20T11:23:36.535Z,24.98
2018-11-20T11:26:29.593Z,22.77
2018-11-20T11:29:29.518Z,20.92
2018-11-20T11:32:29.451Z,24.77
2018-11-20T11:35:29.425Z,20.60
2018-11-20T11:38:29.556Z,20.62
2018-11-20T11:41:29.323Z,17.90
2018-11-20T11:44:32.945Z,16.90
2018-11-20T11:47:32.419Z,29.05
2018-11-20T11:50:33.263Z,25.70
2018-11-20T11:53:28.558Z,19.30
2018-11-20T11:56:29.410Z,27.22
2018-11-20T11:59:29.424Z,29.35
2018-11-20T12:05:29.335Z,16.87
2018-11-20T12:08:17.699Z,18.77
2018-11-20T12:11:18.005Z,19.73
2018-11-20T12:14:18.602Z,13.65
2018-11-20T12:17:24.518Z,25.82
2018-11-20T12:20:14.231Z,23.70
2018-11-20T12:23:14.416Z,19.95
2018-11-20T12:26:15.105Z,20.60
2018-11-20T12:29:17.100Z,14.60
2018-11-20T12:32:15.700Z,18.35
2018-11-20T12:38:19.687Z,19.52
2018-11-20T12:44:22.871Z,18.25
2018-11-20T12:50:39.641Z,21.62
2018-11-20T12:56:43.477Z,22.50
2018-11-20T12:59:43.333Z,25.77
2018-11-20T13:02:44.264Z,19.67
2018-11-20T13:08:48.129Z,20.70
2018-11-20T13:14:50.600Z,20.95
2018-11-20T13:17:52.978Z,24.45
2018-11-20T13:20:54.306Z,24.10
2018-11-20T13:23:52.999Z,18.80
2018-11-20T13:26:55.832Z,20.30
2018-11-20T13:29:55.976Z,16.67
2018-11-20T13:32:44.219Z,17.65
2018-11-20T13:35:51.596Z,26.70
2018-11-20T13:39:00.577Z,21.45
2018-11-20T13:42:08.070Z,24.50
2018-11-20T13:45:18.626Z,19.52
2018-11-20T13:48:23.269Z,15.63
2018-11-20T13:51:31.859Z,21.48
2018-11-20T13:54:37.736Z,19.35
2018-11-20T13:57:38.518Z,19.95
2018-11-20T14:00:45.765Z,26.52
2018-11-20T14:03:53.016Z,20.43
2018-11-20T14:07:00.418Z,20.62
2018-11-20T14:10:08.503Z,24.30
2018-11-20T14:13:15.758Z,24.95
2018-11-20T14:16:23.029Z,22.73
2018-11-20T14:19:30.241Z,27.55
2018-11-20T14:22:37.483Z,23.00
2018-11-20T14:25:46.272Z,17.12
2018-11-20T14:28:53.515Z,25.48
2018-11-20T14:32:00.732Z,23.47
2018-11-20T14:34:58.501Z,27.80
2018-11-20T14:38:05.705Z,29.57
2018-11-20T14:44:16.477Z,25.68
2018-11-20T14:47:23.727Z,23.60
2018-11-20T14:50:30.996Z,23.87
2018-11-20T14:53:38.239Z,29.27
2018-11-20T14:56:45.459Z,24.25
2018-11-20T14:59:52.691Z,27.70
2018-11-20T15:02:58.572Z,26.05
2018-11-20T15:06:05.788Z,24.70
2018-11-20T15:09:13.033Z,27.15
2018-11-20T15:12:20.252Z,28.20
2018-11-20T15:15:29.107Z,28.45
2018-11-20T15:18:36.650Z,31.75
2018-11-20T15:21:43.919Z,28.95
2018-11-20T15:24:51.142Z,22.90
2018-11-20T15:27:29.681Z,26.40
2018-11-20T15:30:29.596Z,27.22
2018-11-20T15:33:36.873Z,23.35
2018-11-20T15:36:44.097Z,23.45
2018-11-20T15:39:51.361Z,20.88
2018-11-20T15:42:50.706Z,21.10
2018-11-20T15:45:57.933Z,29.72
2018-11-20T15:49:05.159Z,29.65
2018-11-20T15:52:12.408Z,20.15
2018-11-20T15:55:19.632Z,20.23
2018-11-20T15:58:26.921Z,26.95
2018-11-20T16:01:34.140Z,34.38
2018-11-20T16:04:33.114Z,25.82
2018-11-20T16:07:40.753Z,26.00
2018-11-20T16:10:48.026Z,30.88
2018-11-20T16:13:55.274Z,31.35
2018-11-20T16:20:04.390Z,32.00
2018-11-20T16:23:03.763Z,28.85
2018-11-20T16:26:05.392Z,29.65
2018-11-20T16:29:12.630Z,33.78
2018-11-20T16:32:14.071Z,31.02
2018-11-20T16:35:21.309Z,25.02
2018-11-20T16:38:20.759Z,26.33
2018-11-20T16:41:28.004Z,30.40
2018-11-20T16:44:35.265Z,33.80
2018-11-20T16:47:42.494Z,36.70
2018-11-20T16:50:49.732Z,28.12
2018-11-20T16:53:56.962Z,30.43
2018-11-20T16:57:03.299Z,35.35
2018-11-20T17:00:03.292Z,30.80
2018-11-20T17:03:00.750Z,29.63
2018-11-20T17:06:00.977Z,37.33
2018-11-20T17:09:00.559Z,29.20
2018-11-20T17:12:00.742Z,32.42
2018-11-20T17:15:03.347Z,32.78
2018-11-20T17:20:46.965Z,25.08
2018-11-20T17:23:36.707Z,35.17
2018-11-20T17:26:37.031Z,28.40
2018-11-20T17:32:21.611Z,31.75
2018-11-20T17:35:24.406Z,27.70
2018-11-20T17:38:24.643Z,33.55
2018-11-20T17:41:24.738Z,21.93
2018-11-20T17:44:24.320Z,24.43
2018-11-20T17:47:24.623Z,27.05
2018-11-20T17:50:24.675Z,27.77
2018-11-20T17:53:24.665Z,26.07
2018-11-20T17:56:24.585Z,24.23
2018-11-20T18:02:15.803Z,26.85
2018-11-20T18:05:23.046Z,27.73
2018-11-20T18:08:30.309Z,25.52
2018-11-20T18:11:37.534Z,18.73
2018-11-20T18:14:44.772Z,26.90
2018-11-20T18:17:48.237Z,26.10
2018-11-20T18:20:55.483Z,27.95
2018-11-20T18:24:02.715Z,28.23
2018-11-20T18:27:01.406Z,30.12
2018-11-20T18:30:08.650Z,30.95
2018-11-20T18:33:15.870Z,28.45
2018-11-20T18:36:23.137Z,29.35
2018-11-20T18:39:30.336Z,25.45
2018-11-20T18:42:37.561Z,28.15
2018-11-20T18:45:45.089Z,25.32
2018-11-20T18:48:52.332Z,27.90
2018-11-20T18:51:48.131Z,26.10
2018-11-20T18:54:55.373Z,28.17
2018-11-20T18:58:02.638Z,30.02
2018-11-20T19:01:09.864Z,25.85
2018-11-20T19:04:17.082Z,22.42
2018-11-20T19:07:24.495Z,22.82
2018-11-20T19:10:31.742Z,27.67
2018-11-20T19:13:38.958Z,19.57
2018-11-20T19:16:46.190Z,17.62
2018-11-20T19:19:53.402Z,22.73
2018-11-20T19:23:00.714Z,14.35
2018-11-20T19:26:07.939Z,24.10
2018-11-20T19:29:15.177Z,24.15
2018-11-20T19:32:22.472Z,23.15
2018-11-20T19:35:29.713Z,15.18
2018-11-20T19:38:36.948Z,23.52
2018-11-20T19:41:40.881Z,26.50
2018-11-20T19:44:48.148Z,19.60
2018-11-20T19:47:55.393Z,26.45
2018-11-20T19:51:02.818Z,23.15
2018-11-20T19:54:10.420Z,23.70
2018-11-20T19:57:17.663Z,28.32
2018-11-20T20:00:26.241Z,25.68
2018-11-20T20:03:33.462Z,24.63
2018-11-20T20:06:40.761Z,17.45
2018-11-20T20:09:47.942Z,25.85
2018-11-20T20:12:55.167Z,30.92
2018-11-20T20:15:58.221Z,24.02
2018-11-20T20:19:05.464Z,25.97
2018-11-20T20:22:05.844Z,27.65
2018-11-20T20:25:13.093Z,25.05
2018-11-20T20:28:18.722Z,24.95
2018-11-20T20:31:26.728Z,18.27
2018-11-20T20:34:34.744Z,25.12
2018-11-20T20:37:42.003Z,17.98
2018-11-20T20:40:49.255Z,22.30
2018-11-20T20:43:53.333Z,16.80
2018-11-20T20:47:00.550Z,19.17
2018-11-20T20:50:07.798Z,18.40
2018-11-20T20:53:15.041Z,22.62
2018-11-20T20:56:26.251Z,27.30
2018-11-20T20:59:33.560Z,22.80
2018-11-20T21:02:36.566Z,28.57
2018-11-20T21:05:27.090Z,17.02
2018-11-20T21:08:13.944Z,22.35
2018-11-20T21:11:06.783Z,23.35
2018-11-20T21:13:53.422Z,17.60
2018-11-20T21:16:44.284Z,18.02
2018-11-20T21:19:35.340Z,30.75
2018-11-20T21:22:21.984Z,20.52
2018-11-20T21:25:13.186Z,25.15
2018-11-20T21:28:16.281Z,25.77
2018-11-20T21:31:10.232Z,21.75
2018-11-20T21:34:09.649Z,20.82
2018-11-20T21:36:56.391Z,16.10
2018-11-20T21:39:39.113Z,21.87
2018-11-20T21:42:20.555Z,17.50
2018-11-20T21:45:08.823Z,20.05
2018-11-20T21:47:55.384Z,28.27
2018-11-20T21:50:41.886Z,27.02
2018-11-20T21:53:28.425Z,22.13
2018-11-20T21:56:34.947Z,21.65
2018-11-20T21:59:40.290Z,16.75
2018-11-20T22:02:37.369Z,16.95
2018-11-20T22:05:24.359Z,14.63
2018-11-20T22:08:11.165Z,24.20
2018-11-20T22:11:09.641Z,19.92
2018-11-20T22:13:56.296Z,14.18
2018-11-20T22:17:02.483Z,22.50
2018-11-20T22:19:49.229Z,27.37
2018-11-20T22:22:35.715Z,23.87
2018-11-20T22:25:15.549Z,19.62
2018-11-20T22:27:54.847Z,26.33
2018-11-20T22:30:39.017Z,20.75
2018-11-20T22:33:25.843Z,23.73
2018-11-20T22:36:22.777Z,22.65
2018-11-20T22:39:00.834Z,21.20
2018-11-20T22:41:51.938Z,21.12
2018-11-20T22:44:38.544Z,26.82
2018-11-20T22:47:32.474Z,26.25
2018-11-20T22:50:09.530Z,19.55
2018-11-20T22:53:06.878Z,21.40
2018-11-20T22:55:53.439Z,20.23
2018-11-20T22:58:50.439Z,17.73
2018-11-20T23:01:32.164Z,26.52
2018-11-20T23:04:19.017Z,26.73
2018-11-20T23:07:03.099Z,29.67
2018-11-20T23:09:32.515Z,26.95
2018-11-20T23:12:01.957Z,21.97
2018-11-20T23:14:31.388Z,15.98
2018-11-20T23:17:00.797Z,23.57
2018-11-20T23:19:30.212Z,23.67
2018-11-20T23:21:59.627Z,20.95
2018-11-20T23:24:29.044Z,21.95
2018-11-20T23:26:58.461Z,26.70
2018-11-20T23:29:27.882Z,27.42
2018-11-20T23:31:57.293Z,24.10
2018-11-20T23:34:26.699Z,28.50
2018-11-20T23:36:56.119Z,19.35
2018-11-20T23:39:25.577Z,27.25
2018-11-20T23:41:54.997Z,25.75
2018-11-20T23:44:24.697Z,25.30
2018-11-20T23:46:54.136Z,18.52
2018-11-20T23:49:23.534Z,27.50
2018-11-20T23:51:52.956Z,23.30
2018-11-20T23:54:22.386Z,31.27
2018-11-20T23:56:51.423Z,22.35
2018-11-20T23:59:20.849Z,23.52
